North Creek, NY (12853)

4:12 PM EDT on August 03, 2015 (GMT -0400)
Old River Road | | Change Station
CLOSE
Current Station
Personal Weather Station
Location: North Creek, NY
Elevation: 1030 ft
Nearby Weather Stations

Elev 1030 ft 43.71 °N, 73.99 °W | Updated 9 seconds ago

Mostly Cloudy
Mostly Cloudy
82.2 °F
Feels Like 83 °F
N
2.0
Wind Variable Wind from West
Gusts 11.0 mph

Today
High -- | Low -- °F
--% Chance of Precip.
Yesterday
High -- | Low -- °F
Precip. -- in
5:46 AM 8:16 PM
Waning Gibbous, 84% visible
Pressure 29.70 in
Visibility 10.0 miles
Clouds Few 4500 ft
Few 8000 ft
Mostly Cloudy 10000 ft
Heat Index 83 °F
Dew Point 60 °F
Humidity 47%
Rainfall 0.00 in
Snow Depth Not available.
UV 4 out of 12
Pollen 8.40 out of 12
Air Quality Not available.
Flu Activity Not available.
METAR KGFL 031953Z AUTO 24007KT 10SM FEW045 FEW080 BKN100 28/16 A2971 RMK AO2 LTG DSNT SE AND S SLP058 T02830161

More Conditions Fewer Conditions

Pressure 29.70 in
Visibility 10.0 miles
Clouds Few 4500 ft
Few 8000 ft
Mostly Cloudy 10000 ft
Heat Index 83 °F
Dew Point 60 °F
Humidity 47%
Rainfall 0.00 in
Snow Depth Not available.
UV 4 out of 12
Pollen 8.40 out of 12
Air Quality Not available.
Flu Activity Not available.
METAR KGFL 031953Z AUTO 24007KT 10SM FEW045 FEW080 BKN100 28/16 A2971 RMK AO2 LTG DSNT SE AND S SLP058 T02830161

More Conditions Fewer Conditions

10-Day Weather Forecast

×

Almanac

Astronomy

Aug. 03, 2015 Rise Set
Actual Time
Civil Twilight
Nautical Twilight
Astronomical Twilight
Moon
Length of Visible Light
Length of Day
Tomorrow will be .
, % of the Moon is Illuminated

Today's Extremes

State Highs State Lows

Community

WunderPhotos

Upload Photos

1,843,720 photos uploaded!

WunderBlogs® & News

Nearby

Air Quality

  Air Quality AQ Index Pollutant
Not available.

Snow Depth

Station Depth Elevation

Earthquake Activity

City Distance Mag. Time & Date
Minimum magnitude displayed is 2.5.

Coastal Water Temperatures

Place Temperature

Stations

Nearby Weather Stations

Station Location Temp. Windchill Dew Point Humidity Wind Precip. Elev Updated Type